sensor_id;sensor_type;location;lat;lon;timestamp;pressure;altitude;pressure_sealevel;temperature
6454;BMP180;3260;52.438;13.502;2022-08-20T04:01:48;100560.00;;;22.80
6454;BMP180;3260;52.438;13.502;2022-08-20T04:04:18;100549.00;;;23.10
6454;BMP180;3260;52.438;13.502;2022-08-20T04:06:47;100564.00;;;23.10
6454;BMP180;3260;52.438;13.502;2022-08-20T04:09:15;100576.00;;;22.90
6454;BMP180;3260;52.438;13.502;2022-08-20T04:11:43;100564.00;;;22.80
6454;BMP180;3260;52.438;13.502;2022-08-20T04:14:11;100576.00;;;22.80
6454;BMP180;3260;52.438;13.502;2022-08-20T04:16:45;100570.00;;;23.10
6454;BMP180;3260;52.438;13.502;2022-08-20T04:19:16;100572.00;;;23.20
6454;BMP180;3260;52.438;13.502;2022-08-20T04:21:44;100569.00;;;23.30
6454;BMP180;3260;52.438;13.502;2022-08-20T04:24:14;100573.00;;;23.10
6454;BMP180;3260;52.438;13.502;2022-08-20T04:26:59;100554.00;;;23.10
6454;BMP180;3260;52.438;13.502;2022-08-20T04:29:29;100566.00;;;23.30
6454;BMP180;3260;52.438;13.502;2022-08-20T04:31:59;100548.00;;;23.40
6454;BMP180;3260;52.438;13.502;2022-08-20T04:34:33;100557.00;;;23.40
6454;BMP180;3260;52.438;13.502;2022-08-20T04:37:03;100559.00;;;23.10
6454;BMP180;3260;52.438;13.502;2022-08-20T04:39:43;100561.00;;;23.20
6454;BMP180;3260;52.438;13.502;2022-08-20T04:42:11;100559.00;;;23.00
6454;BMP180;3260;52.438;13.502;2022-08-20T04:44:38;100562.00;;;23.20
6454;BMP180;3260;52.438;13.502;2022-08-20T04:47:06;100561.00;;;23.40
6454;BMP180;3260;52.438;13.502;2022-08-20T04:49:38;100562.00;;;23.80
6454;BMP180;3260;52.438;13.502;2022-08-20T04:52:06;100571.00;;;23.60
6454;BMP180;3260;52.438;13.502;2022-08-20T04:54:34;100570.00;;;23.90
6454;BMP180;3260;52.438;13.502;2022-08-20T04:57:03;100569.00;;;24.00
6454;BMP180;3260;52.438;13.502;2022-08-20T04:59:31;100568.00;;;23.90
6454;BMP180;3260;52.438;13.502;2022-08-20T05:01:59;100575.00;;;23.10
6454;BMP180;3260;52.438;13.502;2022-08-20T05:04:28;100578.00;;;23.00
6454;BMP180;3260;52.438;13.502;2022-08-20T05:06:57;100575.00;;;23.00
6454;BMP180;3260;52.438;13.502;2022-08-20T05:09:26;100591.00;;;23.50
6454;BMP180;3260;52.438;13.502;2022-08-20T05:11:54;100597.00;;;23.30
6454;BMP180;3260;52.438;13.502;2022-08-20T05:14:22;100598.00;;;22.70
6454;BMP180;3260;52.438;13.502;2022-08-20T05:16:50;100603.00;;;22.70
6454;BMP180;3260;52.438;13.502;2022-08-20T05:19:23;100593.00;;;22.90
6454;BMP180;3260;52.438;13.502;2022-08-20T05:21:54;100575.00;;;22.80
6454;BMP180;3260;52.438;13.502;2022-08-20T05:24:26;100587.00;;;23.50
6454;BMP180;3260;52.438;13.502;2022-08-20T05:26:54;100580.00;;;23.70
6454;BMP180;3260;52.438;13.502;2022-08-20T05:29:23;100583.00;;;23.90
6454;BMP180;3260;52.438;13.502;2022-08-20T05:31:52;100598.00;;;23.90
6454;BMP180;3260;52.438;13.502;2022-08-20T05:34:20;100612.00;;;24.10
6454;BMP180;3260;52.438;13.502;2022-08-20T05:36:50;100606.00;;;24.10
6454;BMP180;3260;52.438;13.502;2022-08-20T05:39:22;100615.00;;;24.10
6454;BMP180;3260;52.438;13.502;2022-08-20T05:41:51;100605.00;;;24.60
6454;BMP180;3260;52.438;13.502;2022-08-20T05:44:19;100606.00;;;24.70
6454;BMP180;3260;52.438;13.502;2022-08-20T05:46:50;100610.00;;;24.80
6454;BMP180;3260;52.438;13.502;2022-08-20T05:49:20;100607.00;;;25.20
6454;BMP180;3260;52.438;13.502;2022-08-20T05:51:49;100618.00;;;25.00
6454;BMP180;3260;52.438;13.502;2022-08-20T05:54:18;100612.00;;;25.10
6454;BMP180;3260;52.438;13.502;2022-08-20T05:56:46;100615.00;;;25.10
6454;BMP180;3260;52.438;13.502;2022-08-20T05:59:16;100610.00;;;25.10
6454;BMP180;3260;52.438;13.502;2022-08-20T06:01:50;100624.00;;;24.70
6454;BMP180;3260;52.438;13.502;2022-08-20T06:04:20;100628.00;;;24.80
6454;BMP180;3260;52.438;13.502;2022-08-20T06:07:01;100627.00;;;25.00
6454;BMP180;3260;52.438;13.502;2022-08-20T06:09:30;100633.00;;;25.20
6454;BMP180;3260;52.438;13.502;2022-08-20T06:12:01;100630.00;;;24.50
6454;BMP180;3260;52.438;13.502;2022-08-20T06:14:32;100633.00;;;24.90
6454;BMP180;3260;52.438;13.502;2022-08-20T06:17:06;100628.00;;;25.00
6454;BMP180;3260;52.438;13.502;2022-08-20T06:19:38;100635.00;;;24.80
6454;BMP180;3260;52.438;13.502;2022-08-20T06:22:11;100634.00;;;24.80
6454;BMP180;3260;52.438;13.502;2022-08-20T06:24:49;100622.00;;;24.40
6454;BMP180;3260;52.438;13.502;2022-08-20T06:27:18;100640.00;;;24.60
6454;BMP180;3260;52.438;13.502;2022-08-20T06:29:49;100631.00;;;24.50
6454;BMP180;3260;52.438;13.502;2022-08-20T06:32:18;100634.00;;;25.00
6454;BMP180;3260;52.438;13.502;2022-08-20T06:34:59;100626.00;;;24.50
6454;BMP180;3260;52.438;13.502;2022-08-20T06:37:30;100633.00;;;24.20
6454;BMP180;3260;52.438;13.502;2022-08-20T06:40:01;100634.00;;;24.70
6454;BMP180;3260;52.438;13.502;2022-08-20T06:42:32;100635.00;;;24.60
6454;BMP180;3260;52.438;13.502;2022-08-20T06:45:02;100637.00;;;24.30
6454;BMP180;3260;52.438;13.502;2022-08-20T06:47:32;100645.00;;;24.20
6454;BMP180;3260;52.438;13.502;2022-08-20T06:50:00;100645.00;;;24.50
6454;BMP180;3260;52.438;13.502;2022-08-20T06:52:29;100644.00;;;24.30
6454;BMP180;3260;52.438;13.502;2022-08-20T06:55:17;100653.00;;;24.40
6454;BMP180;3260;52.438;13.502;2022-08-20T06:57:45;100648.00;;;24.20
6454;BMP180;3260;52.438;13.502;2022-08-20T07:00:18;100639.00;;;24.50
6454;BMP180;3260;52.438;13.502;2022-08-20T07:02:46;100655.00;;;24.30
6454;BMP180;3260;52.438;13.502;2022-08-20T07:05:14;100651.00;;;24.40
6454;BMP180;3260;52.438;13.502;2022-08-20T07:07:44;100655.00;;;24.40
6454;BMP180;3260;52.438;13.502;2022-08-20T07:10:14;100652.00;;;24.10
6454;BMP180;3260;52.438;13.502;2022-08-20T07:12:43;100663.00;;;24.10
6454;BMP180;3260;52.438;13.502;2022-08-20T07:15:14;100667.00;;;24.60
6454;BMP180;3260;52.438;13.502;2022-08-20T07:17:49;100672.00;;;24.00
6454;BMP180;3260;52.438;13.502;2022-08-20T07:20:18;100672.00;;;24.40
6454;BMP180;3260;52.438;13.502;2022-08-20T07:22:48;100667.00;;;24.50
6454;BMP180;3260;52.438;13.502;2022-08-20T07:25:19;100679.00;;;24.30
6454;BMP180;3260;52.438;13.502;2022-08-20T07:27:49;100680.00;;;24.40
6454;BMP180;3260;52.438;13.502;2022-08-20T07:30:24;100685.00;;;24.10
6454;BMP180;3260;52.438;13.502;2022-08-20T07:33:23;100681.00;;;23.90
6454;BMP180;3260;52.438;13.502;2022-08-20T07:35:54;100691.00;;;24.00
6454;BMP180;3260;52.438;13.502;2022-08-20T07:38:24;100675.00;;;24.10
6454;BMP180;3260;52.438;13.502;2022-08-20T07:40:56;100683.00;;;24.20
6454;BMP180;3260;52.438;13.502;2022-08-20T07:43:25;100688.00;;;24.20
6454;BMP180;3260;52.438;13.502;2022-08-20T07:45:57;100687.00;;;23.90
6454;BMP180;3260;52.438;13.502;2022-08-20T07:48:29;100692.00;;;24.30
6454;BMP180;3260;52.438;13.502;2022-08-20T07:51:00;100692.00;;;24.20
6454;BMP180;3260;52.438;13.502;2022-08-20T07:53:30;100696.00;;;24.00
6454;BMP180;3260;52.438;13.502;2022-08-20T07:56:05;100690.00;;;24.30
6454;BMP180;3260;52.438;13.502;2022-08-20T07:58:35;100682.00;;;24.70
6454;BMP180;3260;52.438;13.502;2022-08-20T08:01:06;100683.00;;;24.90
6454;BMP180;3260;52.438;13.502;2022-08-20T08:03:36;100678.00;;;24.40
6454;BMP180;3260;52.438;13.502;2022-08-20T08:06:17;100690.00;;;24.90
6454;BMP180;3260;52.438;13.502;2022-08-20T08:09:02;100693.00;;;24.80
6454;BMP180;3260;52.438;13.502;2022-08-20T08:11:33;100695.00;;;24.70
6454;BMP180;3260;52.438;13.502;2022-08-20T08:14:05;100690.00;;;24.30
6454;BMP180;3260;52.438;13.502;2022-08-20T08:16:37;100696.00;;;24.60
6454;BMP180;3260;52.438;13.502;2022-08-20T08:19:09;100703.00;;;24.30
6454;BMP180;3260;52.438;13.502;2022-08-20T08:21:37;100706.00;;;24.20
6454;BMP180;3260;52.438;13.502;2022-08-20T08:24:06;100701.00;;;24.20
6454;BMP180;3260;52.438;13.502;2022-08-20T08:26:34;100701.00;;;24.30
6454;BMP180;3260;52.438;13.502;2022-08-20T08:29:02;100704.00;;;24.60
6454;BMP180;3260;52.438;13.502;2022-08-20T08:31:33;100700.00;;;24.60
6454;BMP180;3260;52.438;13.502;2022-08-20T08:34:02;100709.00;;;24.90
6454;BMP180;3260;52.438;13.502;2022-08-20T08:36:31;100706.00;;;24.90
6454;BMP180;3260;52.438;13.502;2022-08-20T08:38:59;100708.00;;;24.70
6454;BMP180;3260;52.438;13.502;2022-08-20T08:41:32;100712.00;;;24.80
6454;BMP180;3260;52.438;13.502;2022-08-20T08:44:06;100720.00;;;25.20
6454;BMP180;3260;52.438;13.502;2022-08-20T08:46:40;100711.00;;;25.10
6454;BMP180;3260;52.438;13.502;2022-08-20T08:49:15;100722.00;;;25.00
6454;BMP180;3260;52.438;13.502;2022-08-20T08:51:49;100720.00;;;25.10
6454;BMP180;3260;52.438;13.502;2022-08-20T08:54:22;100720.00;;;25.10
6454;BMP180;3260;52.438;13.502;2022-08-20T08:56:52;100727.00;;;25.60
6454;BMP180;3260;52.438;13.502;2022-08-20T08:59:21;100717.00;;;25.30
6454;BMP180;3260;52.438;13.502;2022-08-20T09:01:56;100728.00;;;25.70
6454;BMP180;3260;52.438;13.502;2022-08-20T09:04:34;100728.00;;;25.40
6454;BMP180;3260;52.438;13.502;2022-08-20T09:07:06;100742.00;;;25.90
6454;BMP180;3260;52.438;13.502;2022-08-20T09:09:41;100739.00;;;26.30
6454;BMP180;3260;52.438;13.502;2022-08-20T09:12:13;100738.00;;;25.70
6454;BMP180;3260;52.438;13.502;2022-08-20T09:14:44;100740.00;;;25.60
6454;BMP180;3260;52.438;13.502;2022-08-20T09:17:14;100734.00;;;25.50
6454;BMP180;3260;52.438;13.502;2022-08-20T09:19:43;100739.00;;;25.30
6454;BMP180;3260;52.438;13.502;2022-08-20T09:22:15;100740.00;;;25.30
6454;BMP180;3260;52.438;13.502;2022-08-20T09:24:44;100738.00;;;26.00
6454;BMP180;3260;52.438;13.502;2022-08-20T09:27:13;100728.00;;;25.30
6454;BMP180;3260;52.438;13.502;2022-08-20T09:29:41;100742.00;;;26.20
6454;BMP180;3260;52.438;13.502;2022-08-20T09:32:12;100744.00;;;26.60
6454;BMP180;3260;52.438;13.502;2022-08-20T09:34:48;100740.00;;;26.40
6454;BMP180;3260;52.438;13.502;2022-08-20T09:37:18;100742.00;;;26.60
6454;BMP180;3260;52.438;13.502;2022-08-20T09:39:47;100747.00;;;26.10
6454;BMP180;3260;52.438;13.502;2022-08-20T09:42:18;100740.00;;;25.60
6454;BMP180;3260;52.438;13.502;2022-08-20T09:44:46;100733.00;;;25.20
6454;BMP180;3260;52.438;13.502;2022-08-20T09:47:15;100738.00;;;25.40
6454;BMP180;3260;52.438;13.502;2022-08-20T09:49:45;100738.00;;;24.80
6454;BMP180;3260;52.438;13.502;2022-08-20T09:52:22;100738.00;;;24.80
6454;BMP180;3260;52.438;13.502;2022-08-20T09:54:56;100746.00;;;25.10
6454;BMP180;3260;52.438;13.502;2022-08-20T09:57:28;100732.00;;;25.40
6454;BMP180;3260;52.438;13.502;2022-08-20T10:00:02;100740.00;;;25.60
6454;BMP180;3260;52.438;13.502;2022-08-20T10:02:31;100743.00;;;25.10
6454;BMP180;3260;52.438;13.502;2022-08-20T10:05:00;100740.00;;;25.50
6454;BMP180;3260;52.438;13.502;2022-08-20T10:07:28;100733.00;;;25.20
6454;BMP180;3260;52.438;13.502;2022-08-20T10:09:56;100737.00;;;24.80
6454;BMP180;3260;52.438;13.502;2022-08-20T10:12:25;100736.00;;;25.40
6454;BMP180;3260;52.438;13.502;2022-08-20T10:14:53;100744.00;;;25.70
6454;BMP180;3260;52.438;13.502;2022-08-20T10:17:21;100740.00;;;25.80
6454;BMP180;3260;52.438;13.502;2022-08-20T10:19:50;100735.00;;;25.50
6454;BMP180;3260;52.438;13.502;2022-08-20T10:22:19;100740.00;;;25.60
6454;BMP180;3260;52.438;13.502;2022-08-20T10:24:47;100735.00;;;26.20
6454;BMP180;3260;52.438;13.502;2022-08-20T10:27:18;100740.00;;;25.90
6454;BMP180;3260;52.438;13.502;2022-08-20T10:29:46;100732.00;;;26.10
6454;BMP180;3260;52.438;13.502;2022-08-20T10:32:16;100731.00;;;26.10
6454;BMP180;3260;52.438;13.502;2022-08-20T10:34:46;100735.00;;;26.30
6454;BMP180;3260;52.438;13.502;2022-08-20T10:37:17;100741.00;;;26.40
6454;BMP180;3260;52.438;13.502;2022-08-20T10:39:47;100738.00;;;26.40
6454;BMP180;3260;52.438;13.502;2022-08-20T10:42:15;100736.00;;;26.40
6454;BMP180;3260;52.438;13.502;2022-08-20T10:44:44;100737.00;;;26.20
6454;BMP180;3260;52.438;13.502;2022-08-20T10:47:17;100738.00;;;26.40
6454;BMP180;3260;52.438;13.502;2022-08-20T10:49:48;100742.00;;;26.80
6454;BMP180;3260;52.438;13.502;2022-08-20T10:52:16;100743.00;;;26.80
6454;BMP180;3260;52.438;13.502;2022-08-20T10:54:44;100751.00;;;26.40
6454;BMP180;3260;52.438;13.502;2022-08-20T10:57:17;100750.00;;;26.60
6454;BMP180;3260;52.438;13.502;2022-08-20T10:59:48;100758.00;;;27.30
6454;BMP180;3260;52.438;13.502;2022-08-20T11:02:17;100755.00;;;27.00
6454;BMP180;3260;52.438;13.502;2022-08-20T11:04:46;100751.00;;;26.60
6454;BMP180;3260;52.438;13.502;2022-08-20T11:07:24;100758.00;;;27.10
6454;BMP180;3260;52.438;13.502;2022-08-20T11:10:13;100750.00;;;26.40
6454;BMP180;3260;52.438;13.502;2022-08-20T11:12:43;100760.00;;;26.30
6454;BMP180;3260;52.438;13.502;2022-08-20T11:15:13;100757.00;;;26.80
6454;BMP180;3260;52.438;13.502;2022-08-20T11:17:43;100769.00;;;26.70
6454;BMP180;3260;52.438;13.502;2022-08-20T11:20:17;100768.00;;;26.50
6454;BMP180;3260;52.438;13.502;2022-08-20T11:22:46;100769.00;;;26.30
6454;BMP180;3260;52.438;13.502;2022-08-20T11:25:14;100759.00;;;26.90
6454;BMP180;3260;52.438;13.502;2022-08-20T11:27:47;100760.00;;;26.30
6454;BMP180;3260;52.438;13.502;2022-08-20T11:30:19;100769.00;;;25.60
6454;BMP180;3260;52.438;13.502;2022-08-20T11:32:47;100769.00;;;25.80
6454;BMP180;3260;52.438;13.502;2022-08-20T11:35:16;100762.00;;;25.30
6454;BMP180;3260;52.438;13.502;2022-08-20T11:38:05;100756.00;;;25.30
6454;BMP180;3260;52.438;13.502;2022-08-20T11:40:33;100764.00;;;25.40
6454;BMP180;3260;52.438;13.502;2022-08-20T11:43:03;100765.00;;;25.60
6454;BMP180;3260;52.438;13.502;2022-08-20T11:45:50;100763.00;;;25.60
6454;BMP180;3260;52.438;13.502;2022-08-20T11:48:20;100768.00;;;25.60
6454;BMP180;3260;52.438;13.502;2022-08-20T11:50:49;100768.00;;;25.40
6454;BMP180;3260;52.438;13.502;2022-08-20T11:53:17;100759.00;;;25.50
6454;BMP180;3260;52.438;13.502;2022-08-20T11:55:47;100766.00;;;25.90
6454;BMP180;3260;52.438;13.502;2022-08-20T11:58:17;100777.00;;;26.10
6454;BMP180;3260;52.438;13.502;2022-08-20T12:00:45;100770.00;;;26.20
6454;BMP180;3260;52.438;13.502;2022-08-20T12:03:14;100776.00;;;26.80
6454;BMP180;3260;52.438;13.502;2022-08-20T12:05:45;100771.00;;;26.30
6454;BMP180;3260;52.438;13.502;2022-08-20T12:08:15;100751.00;;;26.10
6454;BMP180;3260;52.438;13.502;2022-08-20T12:10:55;100774.00;;;25.70
6454;BMP180;3260;52.438;13.502;2022-08-20T12:13:28;100771.00;;;25.60
6454;BMP180;3260;52.438;13.502;2022-08-20T12:16:14;100764.00;;;26.10
6454;BMP180;3260;52.438;13.502;2022-08-20T12:18:43;100767.00;;;25.70
6454;BMP180;3260;52.438;13.502;2022-08-20T12:21:12;100745.00;;;25.80
6454;BMP180;3260;52.438;13.502;2022-08-20T12:23:41;100771.00;;;25.50
6454;BMP180;3260;52.438;13.502;2022-08-20T12:26:09;100777.00;;;25.50
6454;BMP180;3260;52.438;13.502;2022-08-20T12:28:39;100772.00;;;25.70
6454;BMP180;3260;52.438;13.502;2022-08-20T12:31:07;100779.00;;;25.80
6454;BMP180;3260;52.438;13.502;2022-08-20T12:33:35;100785.00;;;25.70
6454;BMP180;3260;52.438;13.502;2022-08-20T12:36:03;100778.00;;;25.60
6454;BMP180;3260;52.438;13.502;2022-08-20T12:38:31;100783.00;;;25.40
6454;BMP180;3260;52.438;13.502;2022-08-20T12:41:00;100777.00;;;25.70
6454;BMP180;3260;52.438;13.502;2022-08-20T12:43:28;100776.00;;;25.70
6454;BMP180;3260;52.438;13.502;2022-08-20T12:45:57;100780.00;;;25.70
6454;BMP180;3260;52.438;13.502;2022-08-20T12:48:26;100779.00;;;25.50
6454;BMP180;3260;52.438;13.502;2022-08-20T12:50:54;100784.00;;;25.80
6454;BMP180;3260;52.438;13.502;2022-08-20T12:53:22;100773.00;;;25.80
6454;BMP180;3260;52.438;13.502;2022-08-20T12:55:50;100782.00;;;26.10
6454;BMP180;3260;52.438;13.502;2022-08-20T12:58:18;100784.00;;;25.40
6454;BMP180;3260;52.438;13.502;2022-08-20T13:00:47;100791.00;;;25.80
6454;BMP180;3260;52.438;13.502;2022-08-20T13:03:18;100791.00;;;25.60
6454;BMP180;3260;52.438;13.502;2022-08-20T13:05:48;100790.00;;;25.40
6454;BMP180;3260;52.438;13.502;2022-08-20T13:08:16;100782.00;;;25.00
6454;BMP180;3260;52.438;13.502;2022-08-20T13:10:46;100790.00;;;24.80
6454;BMP180;3260;52.438;13.502;2022-08-20T13:13:16;100784.00;;;24.60
6454;BMP180;3260;52.438;13.502;2022-08-20T13:15:48;100794.00;;;25.00
6454;BMP180;3260;52.438;13.502;2022-08-20T13:18:19;100789.00;;;24.80
6454;BMP180;3260;52.438;13.502;2022-08-20T13:20:48;100795.00;;;25.00
6454;BMP180;3260;52.438;13.502;2022-08-20T13:23:16;100795.00;;;25.30
6454;BMP180;3260;52.438;13.502;2022-08-20T13:25:44;100797.00;;;25.10
6454;BMP180;3260;52.438;13.502;2022-08-20T13:28:12;100788.00;;;24.80
6454;BMP180;3260;52.438;13.502;2022-08-20T13:30:40;100795.00;;;24.70
6454;BMP180;3260;52.438;13.502;2022-08-20T13:33:09;100789.00;;;24.70
6454;BMP180;3260;52.438;13.502;2022-08-20T13:35:38;100789.00;;;25.10
6454;BMP180;3260;52.438;13.502;2022-08-20T13:38:06;100794.00;;;24.40
6454;BMP180;3260;52.438;13.502;2022-08-20T13:40:35;100792.00;;;25.00
6454;BMP180;3260;52.438;13.502;2022-08-20T13:43:03;100790.00;;;24.90
6454;BMP180;3260;52.438;13.502;2022-08-20T13:45:34;100793.00;;;24.90
6454;BMP180;3260;52.438;13.502;2022-08-20T13:48:04;100790.00;;;24.80
6454;BMP180;3260;52.438;13.502;2022-08-20T13:50:42;100799.00;;;24.90
6454;BMP180;3260;52.438;13.502;2022-08-20T13:53:14;100799.00;;;24.60
6454;BMP180;3260;52.438;13.502;2022-08-20T13:55:44;100797.00;;;24.50
6454;BMP180;3260;52.438;13.502;2022-08-20T13:58:12;100797.00;;;24.50
6454;BMP180;3260;52.438;13.502;2022-08-20T14:00:40;100798.00;;;24.10
6454;BMP180;3260;52.438;13.502;2022-08-20T14:03:09;100776.00;;;23.70
6454;BMP180;3260;52.438;13.502;2022-08-20T14:05:41;100796.00;;;23.80
6454;BMP180;3260;52.438;13.502;2022-08-20T14:08:15;100795.00;;;23.60
6454;BMP180;3260;52.438;13.502;2022-08-20T14:10:45;100779.00;;;24.30
6454;BMP180;3260;52.438;13.502;2022-08-20T14:13:20;100798.00;;;24.10
6454;BMP180;3260;52.438;13.502;2022-08-20T14:15:49;100795.00;;;24.10
6454;BMP180;3260;52.438;13.502;2022-08-20T14:18:18;100790.00;;;23.90
6454;BMP180;3260;52.438;13.502;2022-08-20T14:20:49;100797.00;;;23.90
6454;BMP180;3260;52.438;13.502;2022-08-20T14:23:17;100797.00;;;24.10
6454;BMP180;3260;52.438;13.502;2022-08-20T14:25:48;100795.00;;;23.90
6454;BMP180;3260;52.438;13.502;2022-08-20T14:28:19;100798.00;;;24.20
6454;BMP180;3260;52.438;13.502;2022-08-20T14:30:49;100797.00;;;24.20
6454;BMP180;3260;52.438;13.502;2022-08-20T14:33:20;100795.00;;;24.20
6454;BMP180;3260;52.438;13.502;2022-08-20T14:35:49;100791.00;;;24.10
6454;BMP180;3260;52.438;13.502;2022-08-20T14:38:18;100792.00;;;23.60
6454;BMP180;3260;52.438;13.502;2022-08-20T14:40:46;100794.00;;;23.40
6454;BMP180;3260;52.438;13.502;2022-08-20T14:43:16;100792.00;;;23.50
6454;BMP180;3260;52.438;13.502;2022-08-20T14:45:45;100799.00;;;23.70
6454;BMP180;3260;52.438;13.502;2022-08-20T14:48:13;100797.00;;;23.90
6454;BMP180;3260;52.438;13.502;2022-08-20T14:50:42;100798.00;;;24.00
6454;BMP180;3260;52.438;13.502;2022-08-20T14:53:11;100761.00;;;24.30
6454;BMP180;3260;52.438;13.502;2022-08-20T14:55:39;100800.00;;;24.10
6454;BMP180;3260;52.438;13.502;2022-08-20T14:58:10;100790.00;;;24.20
6454;BMP180;3260;52.438;13.502;2022-08-20T15:00:39;100796.00;;;23.70
6454;BMP180;3260;52.438;13.502;2022-08-20T15:03:08;100781.00;;;23.80
6454;BMP180;3260;52.438;13.502;2022-08-20T15:05:36;100800.00;;;24.20
6454;BMP180;3260;52.438;13.502;2022-08-20T15:08:06;100807.00;;;23.80
6454;BMP180;3260;52.438;13.502;2022-08-20T15:10:38;100803.00;;;23.30
6454;BMP180;3260;52.438;13.502;2022-08-20T15:13:07;100812.00;;;23.40
6454;BMP180;3260;52.438;13.502;2022-08-20T15:15:36;100810.00;;;23.20
6454;BMP180;3260;52.438;13.502;2022-08-20T15:18:05;100812.00;;;23.10
6454;BMP180;3260;52.438;13.502;2022-08-20T15:20:36;100804.00;;;23.30
6454;BMP180;3260;52.438;13.502;2022-08-20T15:23:05;100801.00;;;23.60
6454;BMP180;3260;52.438;13.502;2022-08-20T15:25:35;100801.00;;;23.60
6454;BMP180;3260;52.438;13.502;2022-08-20T15:28:08;100800.00;;;24.00
6454;BMP180;3260;52.438;13.502;2022-08-20T15:30:39;100802.00;;;24.20
6454;BMP180;3260;52.438;13.502;2022-08-20T15:33:08;100802.00;;;24.40
6454;BMP180;3260;52.438;13.502;2022-08-20T15:35:36;100799.00;;;24.30
6454;BMP180;3260;52.438;13.502;2022-08-20T15:38:05;100807.00;;;24.80
6454;BMP180;3260;52.438;13.502;2022-08-20T15:40:33;100805.00;;;24.30
6454;BMP180;3260;52.438;13.502;2022-08-20T15:43:05;100802.00;;;24.50
6454;BMP180;3260;52.438;13.502;2022-08-20T15:45:34;100806.00;;;24.80
6454;BMP180;3260;52.438;13.502;2022-08-20T15:48:11;100804.00;;;24.80
6454;BMP180;3260;52.438;13.502;2022-08-20T15:50:57;100807.00;;;24.80
6454;BMP180;3260;52.438;13.502;2022-08-20T15:53:32;100806.00;;;23.80
6454;BMP180;3260;52.438;13.502;2022-08-20T15:56:11;100804.00;;;23.70
6454;BMP180;3260;52.438;13.502;2022-08-20T15:58:52;100812.00;;;23.30
6454;BMP180;3260;52.438;13.502;2022-08-20T16:01:37;100805.00;;;23.80
6454;BMP180;3260;52.438;13.502;2022-08-20T16:04:49;100782.00;;;23.30
6454;BMP180;3260;52.438;13.502;2022-08-20T16:07:25;100789.00;;;23.10
6454;BMP180;3260;52.438;13.502;2022-08-20T16:10:03;100805.00;;;23.20
6454;BMP180;3260;52.438;13.502;2022-08-20T16:12:38;100796.00;;;23.10
6454;BMP180;3260;52.438;13.502;2022-08-20T16:15:13;100805.00;;;23.40
6454;BMP180;3260;52.438;13.502;2022-08-20T16:17:48;100799.00;;;23.40
6454;BMP180;3260;52.438;13.502;2022-08-20T16:20:23;100807.00;;;23.30
6454;BMP180;3260;52.438;13.502;2022-08-20T16:23:01;100809.00;;;23.70
6454;BMP180;3260;52.438;13.502;2022-08-20T16:25:37;100806.00;;;23.40
6454;BMP180;3260;52.438;13.502;2022-08-20T16:28:20;100805.00;;;22.80
6454;BMP180;3260;52.438;13.502;2022-08-20T16:30:59;100813.00;;;23.30
6454;BMP180;3260;52.438;13.502;2022-08-20T16:33:33;100815.00;;;23.00
6454;BMP180;3260;52.438;13.502;2022-08-20T16:36:11;100828.00;;;22.60
6454;BMP180;3260;52.438;13.502;2022-08-20T16:38:50;100823.00;;;22.30
6454;BMP180;3260;52.438;13.502;2022-08-20T16:41:26;100825.00;;;22.70
6454;BMP180;3260;52.438;13.502;2022-08-20T16:44:03;100830.00;;;22.90
6454;BMP180;3260;52.438;13.502;2022-08-20T16:46:36;100818.00;;;23.20
6454;BMP180;3260;52.438;13.502;2022-08-20T16:49:11;100816.00;;;23.30
6454;BMP180;3260;52.438;13.502;2022-08-20T16:51:44;100797.00;;;23.20
6454;BMP180;3260;52.438;13.502;2022-08-20T16:54:19;100817.00;;;23.20
6454;BMP180;3260;52.438;13.502;2022-08-20T16:57:00;100819.00;;;23.60
6454;BMP180;3260;52.438;13.502;2022-08-20T16:59:29;100821.00;;;23.70
6454;BMP180;3260;52.438;13.502;2022-08-20T17:02:04;100814.00;;;23.90
6454;BMP180;3260;52.438;13.502;2022-08-20T17:04:43;100820.00;;;23.80
6454;BMP180;3260;52.438;13.502;2022-08-20T17:07:27;100815.00;;;24.00
6454;BMP180;3260;52.438;13.502;2022-08-20T17:10:12;100821.00;;;23.70
6454;BMP180;3260;52.438;13.502;2022-08-20T17:12:42;100820.00;;;23.20
6454;BMP180;3260;52.438;13.502;2022-08-20T17:15:21;100822.00;;;23.30
6454;BMP180;3260;52.438;13.502;2022-08-20T17:17:51;100818.00;;;23.20
6454;BMP180;3260;52.438;13.502;2022-08-20T17:20:24;100819.00;;;23.40
6454;BMP180;3260;52.438;13.502;2022-08-20T17:23:10;100817.00;;;23.10
6454;BMP180;3260;52.438;13.502;2022-08-20T17:25:42;100822.00;;;23.30
6454;BMP180;3260;52.438;13.502;2022-08-20T17:28:14;100813.00;;;23.80
6454;BMP180;3260;52.438;13.502;2022-08-20T17:30:44;100821.00;;;23.20
6454;BMP180;3260;52.438;13.502;2022-08-20T17:33:34;100833.00;;;23.50
6454;BMP180;3260;52.438;13.502;2022-08-20T17:36:09;100827.00;;;23.30
6454;BMP180;3260;52.438;13.502;2022-08-20T17:38:46;100829.00;;;22.70
6454;BMP180;3260;52.438;13.502;2022-08-20T17:41:21;100834.00;;;22.60
6454;BMP180;3260;52.438;13.502;2022-08-20T17:43:57;100847.00;;;22.80
6454;BMP180;3260;52.438;13.502;2022-08-20T17:46:31;100844.00;;;23.00
6454;BMP180;3260;52.438;13.502;2022-08-20T17:49:07;100837.00;;;23.30
6454;BMP180;3260;52.438;13.502;2022-08-20T17:51:43;100847.00;;;22.90
6454;BMP180;3260;52.438;13.502;2022-08-20T17:54:20;100844.00;;;23.00
6454;BMP180;3260;52.438;13.502;2022-08-20T17:56:55;100834.00;;;22.90
6454;BMP180;3260;52.438;13.502;2022-08-20T17:59:31;100847.00;;;23.30
6454;BMP180;3260;52.438;13.502;2022-08-20T18:02:20;100855.00;;;23.10
6454;BMP180;3260;52.438;13.502;2022-08-20T18:04:50;100855.00;;;22.80
6454;BMP180;3260;52.438;13.502;2022-08-20T18:07:24;100850.00;;;23.70
6454;BMP180;3260;52.438;13.502;2022-08-20T18:10:00;100855.00;;;23.90
6454;BMP180;3260;52.438;13.502;2022-08-20T18:12:35;100849.00;;;24.00
6454;BMP180;3260;52.438;13.502;2022-08-20T18:15:14;100857.00;;;23.70
6454;BMP180;3260;52.438;13.502;2022-08-20T18:18:13;100855.00;;;23.00
6454;BMP180;3260;52.438;13.502;2022-08-20T18:21:14;100860.00;;;23.10
6454;BMP180;3260;52.438;13.502;2022-08-20T18:23:52;100868.00;;;23.10
6454;BMP180;3260;52.438;13.502;2022-08-20T18:26:28;100863.00;;;23.20
6454;BMP180;3260;52.438;13.502;2022-08-20T18:29:07;100866.00;;;22.50
6454;BMP180;3260;52.438;13.502;2022-08-20T18:31:44;100863.00;;;22.90
6454;BMP180;3260;52.438;13.502;2022-08-20T18:34:18;100867.00;;;23.10
6454;BMP180;3260;52.438;13.502;2022-08-20T18:36:59;100869.00;;;22.60